Porter, Pennsylvania
Current Conditions -  °F | °C
As of 7:58 PM on Sunday 23 Nov 2014 (Local Time) from KMUI Reporting Station
Broken Clouds Broken Clouds  
Wind Chill: 43°   Ceiling: 3700
Heat Index: 43°   Visibility: 10mi
Dew Point: 28°   Wind: 3mph
Humidity: 54%   Direction: 40°NE
Pressure: 30.04"   Gusts: NA
Location:  40.5383°N, 76.6127°W
Report Text: KMUI 240058Z AUTO 04003KT 10SM BKN037 BKN050 06/M02 A3004 RMK AO2 SLP179 T00621025 $
Loading
Personal Weather Stations






























Interactive Weather Map New forecast layout! Learn more

10-Day Weather Forecast

Advertisements
Track Severe Weather on mobile